Gepp, Arkansas
Current Conditions -  °F | °C
As of 1:53 AM on Sunday 21 Dec 2014 (Local Time) from KBPK Reporting Station
Haze Haze  
Wind Chill: 35°   Ceiling: 3100
Heat Index: 39°   Visibility: 6mi
Dew Point: 37°   Wind: 6mph
Humidity: 93%   Direction: 140°SE
Pressure: 30.19"   Gusts: NA
Location:  36.39°N, 92.1°W
Report Text: KBPK 210753Z AUTO 14005KT 6SM BR OVC031 04/03 A3019 RMK AO2 SLP225 T00390028
Loading
Personal Weather Stations






























Interactive Weather Map New forecast layout! Learn more

10-Day Weather Forecast

Advertisements
Track Severe Weather on mobile